createdAt,value
2022-12-08T00:04:22.898Z,5.06
2022-12-08T00:09:40.091Z,5.12
2022-12-08T00:14:06.842Z,5.06
2022-12-08T00:19:16.606Z,5.12
2022-12-08T00:24:27.039Z,5.06
2022-12-08T00:29:38.047Z,5
2022-12-08T00:34:47.804Z,5.19
2022-12-08T00:39:57.579Z,5.25
2022-12-08T00:45:06.084Z,5.31
2022-12-08T00:50:14.533Z,4.94
2022-12-08T00:55:22.996Z,5.31
2022-12-08T01:00:33.443Z,5.25
2022-12-08T01:05:43.168Z,5.25
2022-12-08T01:10:53.510Z,5.19
2022-12-08T01:16:00.768Z,5
2022-12-08T01:21:09.886Z,5.12
2022-12-08T01:26:19.685Z,5.06
2022-12-08T01:31:28.300Z,5
2022-12-08T01:36:36.608Z,4.88
2022-12-08T01:41:45.090Z,4.75
2022-12-08T01:46:54.850Z,4.75
2022-12-08T01:52:03.970Z,4.75
2022-12-08T01:57:12.481Z,4.81
2022-12-08T02:02:22.270Z,4.88
2022-12-08T02:07:31.998Z,4.75
2022-12-08T02:12:41.090Z,4.62
2022-12-08T02:17:49.568Z,4.81
2022-12-08T02:22:58.718Z,4.62
2022-12-08T02:28:07.823Z,4.62
2022-12-08T02:33:18.244Z,4.5
2022-12-08T02:38:27.978Z,4.88
2022-12-08T02:43:37.084Z,4.81
2022-12-08T02:48:46.844Z,4.69
2022-12-08T02:53:56.763Z,4.69
2022-12-08T02:59:06.370Z,4.81
2022-12-08T03:04:16.134Z,4.81
2022-12-08T03:09:26.528Z,5
2022-12-08T03:14:36.963Z,5.06
2022-12-08T03:19:46.064Z,4.88
2022-12-08T03:24:55.836Z,4.81
2022-12-08T03:30:05.886Z,4.94
2022-12-08T03:35:15.357Z,5
2022-12-08T03:40:24.533Z,5.12
2022-12-08T03:45:33.564Z,5
2022-12-08T03:50:43.330Z,5.12
2022-12-08T03:55:54.401Z,5
2022-12-08T04:01:08.065Z,5.06
2022-12-08T04:06:24.251Z,4.94
2022-12-08T04:11:39.750Z,5
2022-12-08T04:16:55.951Z,5.12
2022-12-08T04:22:11.461Z,5.12
2022-12-08T04:27:26.314Z,5
2022-12-08T04:32:45.846Z,5
2022-12-08T04:37:08.608Z,5.06
2022-12-08T04:42:19.011Z,4.94
2022-12-08T04:47:28.769Z,4.94
2022-12-08T04:52:38.532Z,5
2022-12-08T04:57:47.661Z,4.81
2022-12-08T05:02:56.206Z,5
2022-12-08T05:08:04.769Z,5
2022-12-08T05:13:14.365Z,5
2022-12-08T05:18:22.851Z,4.94
2022-12-08T05:23:31.966Z,5.06
2022-12-08T05:28:43.464Z,4.94
2022-12-08T05:33:49.572Z,4.88
2022-12-08T05:38:58.050Z,4.88
2022-12-08T05:44:06.581Z,4.88
2022-12-08T05:49:15.644Z,4.75
2022-12-08T05:54:26.090Z,4.88
2022-12-08T05:59:34.540Z,4.94
2022-12-08T06:04:43.009Z,5
2022-12-08T06:09:51.493Z,4.94
2022-12-08T06:15:00.638Z,4.94
2022-12-08T06:20:09.105Z,4.94
2022-12-08T06:25:17.567Z,4.94
2022-12-08T06:30:26.723Z,4.81
2022-12-08T06:35:35.179Z,5.06
2022-12-08T06:40:43.657Z,5.12
2022-12-08T06:45:52.827Z,4.75
2022-12-08T06:51:01.280Z,4.81
2022-12-08T06:56:09.729Z,4.75
2022-12-08T07:01:19.591Z,4.75
2022-12-08T07:06:28.632Z,4.75
2022-12-08T07:11:37.728Z,4.69
2022-12-08T07:16:47.010Z,4.56
2022-12-08T07:21:55.333Z,4.44
2022-12-08T07:27:03.792Z,4.44
2022-12-08T07:32:12.927Z,4.56
2022-12-08T07:37:25.992Z,4.75
2022-12-08T07:42:51.110Z,4.5
2022-12-08T07:48:06.627Z,4.62
2022-12-08T07:53:22.190Z,4.62
2022-12-08T07:58:37.681Z,4.56
2022-12-08T08:03:07.197Z,4.81
2022-12-08T08:08:15.597Z,5
2022-12-08T08:13:23.334Z,5.12
2022-12-08T08:18:33.105Z,4.94
2022-12-08T08:23:42.209Z,5
2022-12-08T08:28:51.426Z,4.88
2022-12-08T08:34:01.731Z,4.69
2022-12-08T08:39:10.210Z,4.81
2022-12-08T08:44:20.653Z,4.81
2022-12-08T08:49:29.729Z,4.88
2022-12-08T08:54:39.525Z,4.56
2022-12-08T08:59:47.358Z,4.75
2022-12-08T09:04:55.933Z,4.88
2022-12-08T09:10:06.346Z,4.69
2022-12-08T09:15:15.972Z,4.56
2022-12-08T09:20:25.760Z,4.62
2022-12-08T09:25:34.866Z,4.75
2022-12-08T09:30:43.971Z,4.62
2022-12-08T09:35:53.132Z,4.75
2022-12-08T09:41:02.854Z,4.5
2022-12-08T09:46:13.392Z,4.5
2022-12-08T09:51:23.005Z,4.62
2022-12-08T09:56:32.842Z,4.94
2022-12-08T10:01:41.321Z,4.81
2022-12-08T10:06:49.739Z,4.56
2022-12-08T10:11:58.235Z,4.56
2022-12-08T10:17:08.095Z,4.69
2022-12-08T10:22:17.760Z,4.81
2022-12-08T10:27:26.211Z,4.56
2022-12-08T10:32:34.691Z,4.56
2022-12-08T10:37:45.118Z,4.75
2022-12-08T10:42:54.852Z,4.81
2022-12-08T10:48:04.644Z,4.75
2022-12-08T10:53:13.727Z,4.75
2022-12-08T10:58:24.160Z,4.94
2022-12-08T11:03:33.250Z,4.94
2022-12-08T11:08:42.368Z,4.81
2022-12-08T11:13:50.883Z,4.75
2022-12-08T11:19:00.610Z,5
2022-12-08T11:24:11.652Z,4.81
2022-12-08T11:29:21.422Z,4.75
2022-12-08T11:34:29.917Z,4.75
2022-12-08T11:39:37.733Z,4.56
2022-12-08T11:44:46.214Z,4.62
2022-12-08T11:49:55.329Z,4.56
2022-12-08T11:55:04.443Z,4.31
2022-12-08T12:00:13.574Z,4.12
2022-12-08T12:05:56.910Z,4.19
2022-12-08T12:10:31.168Z,4.12
2022-12-08T12:15:40.282Z,4.19
2022-12-08T12:20:49.435Z,3.94
2022-12-08T12:25:58.537Z,3.88
2022-12-08T12:27:40.926Z,3.69
2022-12-08T12:32:48.766Z,3.62
2022-12-08T12:37:58.557Z,3.94
2022-12-08T12:43:07.648Z,3.69
2022-12-08T12:48:14.850Z,3.62
2022-12-08T12:53:23.328Z,3.75
2022-12-08T12:58:33.119Z,3.75
2022-12-08T13:03:42.211Z,3.38
2022-12-08T13:08:52.011Z,3.56
2022-12-08T13:14:00.453Z,3.38
2022-12-08T13:19:10.214Z,3.62
2022-12-08T13:24:19.987Z,3.38
2022-12-08T13:29:29.750Z,3.19
2022-12-08T13:34:38.239Z,3.56
2022-12-08T13:39:46.080Z,3.19
2022-12-08T13:45:49.014Z,3.31
2022-12-08T14:00:22.527Z,3.88
2022-12-08T14:06:11.996Z,4
2022-12-08T14:10:41.414Z,4
2022-12-08T14:15:51.302Z,4.06
2022-12-08T14:21:21.541Z,4.12
2022-12-08T14:26:09.407Z,4.12
2022-12-08T14:31:18.625Z,4.25
2022-12-08T14:36:28.289Z,4.12
2022-12-08T14:41:38.715Z,4.19
2022-12-08T14:46:49.231Z,4.19
2022-12-08T14:51:57.608Z,4.25
2022-12-08T14:57:06.685Z,4.12
2022-12-08T15:02:15.172Z,4.19
2022-12-08T15:07:24.317Z,4.12
2022-12-08T15:12:34.047Z,4.12
2022-12-08T15:17:43.842Z,4
2022-12-08T15:22:52.312Z,3.94
2022-12-08T15:28:01.407Z,3.81
2022-12-08T15:33:10.581Z,3.94
2022-12-08T15:38:19.008Z,3.88
2022-12-08T15:43:28.129Z,3.81
2022-12-08T15:48:36.638Z,3.88
2022-12-08T15:53:45.094Z,4
2022-12-08T15:58:56.758Z,4
2022-12-08T16:05:25.559Z,4.06
2022-12-08T16:09:13.659Z,3.94
2022-12-08T16:15:51.524Z,3.94
2022-12-08T16:19:28.774Z,3.94
2022-12-08T16:24:37.918Z,3.81
2022-12-08T16:29:46.368Z,3.88
2022-12-08T16:34:56.132Z,4
2022-12-08T16:40:05.414Z,4.12
2022-12-08T16:45:14.371Z,4.12
2022-12-08T16:50:25.406Z,4.12
2022-12-08T16:55:33.889Z,4.19
2022-12-08T17:00:43.733Z,4.12
2022-12-08T17:05:52.131Z,4.12
2022-12-08T17:11:01.254Z,3.69
2022-12-08T17:16:09.178Z,3.75
2022-12-08T17:21:21.410Z,3.81
2022-12-08T17:26:29.917Z,4
2022-12-08T17:31:39.174Z,3.94
2022-12-08T17:36:48.799Z,3.94
2022-12-08T17:41:59.168Z,4.06
2022-12-08T17:47:08.320Z,4.12
2022-12-08T17:52:18.046Z,4.06
2022-12-08T17:57:27.839Z,4.06
2022-12-08T18:02:36.954Z,3.75
2022-12-08T18:07:47.482Z,3.69
2022-12-08T18:12:57.088Z,3.94
2022-12-08T18:18:06.205Z,4.06
2022-12-08T18:23:14.719Z,4.19
2022-12-08T18:28:24.449Z,4.12
2022-12-08T18:33:32.294Z,4.19
2022-12-08T18:38:40.809Z,4.19
2022-12-08T18:43:49.417Z,4.25
2022-12-08T18:48:58.373Z,4.38
2022-12-08T18:54:07.519Z,4.31
2022-12-08T18:59:15.969Z,4.38
2022-12-08T19:04:29.344Z,4.25
2022-12-08T19:09:32.931Z,4.38
2022-12-08T19:14:42.077Z,4.31
2022-12-08T19:19:50.536Z,4.25
2022-12-08T19:25:00.971Z,4.12
2022-12-08T19:30:09.922Z,4.25
2022-12-08T19:35:19.171Z,4.25
2022-12-08T19:40:28.959Z,4.25
2022-12-08T19:45:38.830Z,4.12
2022-12-08T19:50:47.851Z,4.12
2022-12-08T19:55:56.935Z,4.06
2022-12-08T20:01:08.127Z,4
2022-12-08T20:06:17.085Z,4
2022-12-08T20:11:25.572Z,3.88
2022-12-08T20:16:36.157Z,4
2022-12-08T20:21:45.087Z,4.06
2022-12-08T20:26:54.262Z,3.94
2022-12-08T20:32:04.205Z,3.94
2022-12-08T20:37:12.477Z,4.06
2022-12-08T20:42:22.847Z,4.19
2022-12-08T20:47:32.796Z,4.12
2022-12-08T20:52:42.498Z,4.06
2022-12-08T20:57:52.884Z,4.19
2022-12-08T21:03:02.928Z,4.12
2022-12-08T21:08:12.539Z,4.19
2022-12-08T21:13:20.975Z,4.06
2022-12-08T21:18:35.955Z,4.19
2022-12-08T21:23:39.703Z,4
2022-12-08T21:28:48.883Z,4.12
2022-12-08T21:33:58.561Z,4
2022-12-08T21:39:08.294Z,4.06
2022-12-08T21:44:16.820Z,3.94
2022-12-08T21:49:25.359Z,4.19
2022-12-08T21:54:34.383Z,4
2022-12-08T21:59:44.189Z,4.12
2022-12-08T22:04:55.513Z,4.12
2022-12-08T22:10:05.698Z,4.06
2022-12-08T22:15:13.412Z,4.12
2022-12-08T22:20:21.972Z,4.06
2022-12-08T22:25:31.819Z,4.06
2022-12-08T22:30:40.926Z,4.19
2022-12-08T22:35:50.667Z,4
2022-12-08T22:41:00.480Z,4.06
2022-12-08T22:46:12.561Z,4
2022-12-08T22:51:17.509Z,4.12
2022-12-08T22:56:25.895Z,4.12
2022-12-08T23:01:36.168Z,4.06
2022-12-08T23:06:44.770Z,4
2022-12-08T23:11:55.808Z,3.94
2022-12-08T23:17:06.287Z,4
2022-12-08T23:22:15.457Z,3.75
2022-12-08T23:27:23.779Z,3.69
2022-12-08T23:32:32.934Z,3.69
2022-12-08T23:37:43.304Z,3.44
2022-12-08T23:42:53.071Z,3.44
2022-12-08T23:48:02.808Z,3.19
2022-12-08T23:53:11.225Z,3.44
2022-12-08T23:58:21.009Z,3.38
